Wiscasset, ME

8:24 AM EST on February 08, 2016 (GMT -0500)
Wiscasset | | Change Station
CLOSE
Current Station
Airport
Location: Wiscasset,
Elevation: 69 ft
Nearby Weather Stations
Active Advisory: Winter Weather Advisory

Elev 69 ft 43.96 °N, 69.71 °W | Updated 31 minutes ago

Clear
Clear
16 °F
Feels Like 6 °F
N
7
Wind Variable Wind from Variable

Today
High -- | Low -- °F
--% Chance of Precip.
Yesterday
High -- | Low -- °F
Precip. -- in
Pressure 30.05 in
Visibility 10.0 miles
Clouds Clear
Windchill 6 °F
Dew Point -1 °F
Humidity 47%
Rainfall 0.00 in
Snow Depth Not available.
6:48 AM 4:58 PM
Waning Crescent, 0% visible
METAR KIWI 081253Z AUTO VRB06KT 10SM CLR M09/M18 A3005 RMK AO2 SLP176 T10891183
Pressure 30.05 in
Visibility 10.0 miles
Clouds Clear
Windchill 6 °F
Dew Point -1 °F
Humidity 47%
Rainfall 0.00 in
Snow Depth Not available.
6:48 AM 4:58 PM
Waning Crescent, 0% visible
METAR KIWI 081253Z AUTO VRB06KT 10SM CLR M09/M18 A3005 RMK AO2 SLP176 T10891183

10-Day Weather Forecast

Almanac

Astronomy

Feb. 08, 2016 Rise Set
Actual Time
Civil Twilight
Nautical Twilight
Astronomical Twilight
Moon
Length of Visible Light
Length of Day
Tomorrow will be .
, % of the Moon is Illuminated

Today's Extremes

State Highs State Lows

Community

WunderPhotos

Upload Photos

1,891,434 photos uploaded!

WunderBlog® & News

Nearby

Air Quality

  Air Quality AQ Index Pollutant
Not available.

Snow Depth

Station Depth Elevation

Earthquake Activity

City Distance Mag. Time & Date
Minimum magnitude displayed is 2.5.

Coastal Water Temperatures

Place Temperature

Stations

Nearby Weather Stations

Station Location Temp. Windchill Dew Point Humidity Wind Precip. Elev Updated Type
                   

Watches & Warnings

Winter Weather Advisory
Issued: 3:39 AM EST Feb. 8, 2016 – National Weather Service

... Winter Weather Advisory remains in effect from 6 am this
morning to noon EST Tuesday...

* hazard types... snow

* accumulations... snow accumulation of 3 to 6 inches.

* Timing... snow will begin this morning and continue into Tuesday
morning. Some light snow could linger into Tuesday afternoon but
much of the accumulation will be over by midday Tuesday.

* Impacts... roads will become snow covered and slippery. Strong
winds will cause blowing and drifting snow and could lead to
low visibility in spots.

* Winds... north 10 to 20 mph with gusts up to 35 mph.

* Temperatures... 12 to 23.

* Visibilities... occasionally near one quarter mile in areas of
heavy blowing and drifting snow.

Precautionary/preparedness actions...

A Winter Weather Advisory for snow means that periods of snow
will cause primarily travel difficulties. Be prepared for snow
covered roads and limited visibilities... and use caution while
driving.